createdAt,value
2018-07-25T00:00:42.424Z,14.40
2018-07-25T00:03:10.984Z,14.50
2018-07-25T00:05:39.440Z,14.30
2018-07-25T00:08:08.622Z,14.30
2018-07-25T00:10:42.539Z,14.30
2018-07-25T00:13:11.013Z,14.20
2018-07-25T00:15:39.501Z,14.20
2018-07-25T00:18:08.603Z,14.30
2018-07-25T00:20:37.604Z,14.30
2018-07-25T00:23:06.276Z,14.20
2018-07-25T00:28:02.884Z,14.10
2018-07-25T00:30:31.357Z,14.10
2018-07-25T00:32:59.771Z,14.10
2018-07-25T00:35:28.296Z,14.00
2018-07-25T00:37:56.749Z,14.10
2018-07-25T00:40:25.227Z,14.10
2018-07-25T00:42:53.806Z,14.00
2018-07-25T00:45:22.284Z,14.00
2018-07-25T00:47:50.756Z,13.90
2018-07-25T00:50:19.207Z,13.90
2018-07-25T00:52:48.004Z,13.90
2018-07-25T00:55:16.486Z,13.80
2018-07-25T00:57:44.934Z,13.80
2018-07-25T01:00:13.497Z,13.80
2018-07-25T01:02:42.058Z,13.80
2018-07-25T01:05:10.633Z,13.90
2018-07-25T01:07:39.122Z,13.90
2018-07-25T01:10:07.681Z,13.90
2018-07-25T01:12:36.168Z,13.80
2018-07-25T01:15:05.527Z,13.70
2018-07-25T01:20:02.228Z,13.60
2018-07-25T01:22:31.386Z,13.70
2018-07-25T01:24:59.956Z,13.60
2018-07-25T01:27:28.492Z,13.60
2018-07-25T01:29:56.944Z,13.60
2018-07-25T01:32:25.444Z,13.60
2018-07-25T01:34:54.378Z,13.50
2018-07-25T01:37:22.852Z,13.50
2018-07-25T01:39:51.346Z,13.50
2018-07-25T01:42:19.914Z,13.50
2018-07-25T01:44:48.628Z,13.50
2018-07-25T01:47:17.128Z,13.40
2018-07-25T01:49:45.596Z,13.40
2018-07-25T01:52:14.044Z,13.40
2018-07-25T01:54:42.810Z,13.40
2018-07-25T01:57:11.404Z,13.40
2018-07-25T01:59:39.985Z,13.50
2018-07-25T02:02:08.479Z,13.50
2018-07-25T02:04:37.657Z,13.40
2018-07-25T02:07:06.200Z,13.40
2018-07-25T02:12:02.956Z,13.30
2018-07-25T02:14:31.416Z,13.30
2018-07-25T02:16:59.833Z,13.20
2018-07-25T02:19:28.692Z,13.20
2018-07-25T02:21:57.140Z,13.20
2018-07-25T02:24:25.664Z,13.20
2018-07-25T02:26:54.166Z,13.20
2018-07-25T02:29:22.666Z,13.20
2018-07-25T02:31:51.205Z,13.20
2018-07-25T02:34:22.463Z,13.10
2018-07-25T02:39:20.193Z,13.20
2018-07-25T02:41:48.641Z,13.10
2018-07-25T02:44:17.106Z,13.10
2018-07-25T02:49:13.836Z,13.10
2018-07-25T02:51:43.057Z,13.00
2018-07-25T02:54:11.561Z,13.00
2018-07-25T02:56:40.093Z,13.00
2018-07-25T02:59:08.630Z,13.00
2018-07-25T03:01:37.141Z,13.00
2018-07-25T03:04:05.644Z,13.00
2018-07-25T03:06:34.229Z,12.90
2018-07-25T03:09:02.834Z,13.00
2018-07-25T03:11:31.249Z,12.90
2018-07-25T03:13:59.772Z,12.90
2018-07-25T03:16:28.417Z,12.80
2018-07-25T03:18:56.904Z,12.80
2018-07-25T03:21:25.409Z,12.80
2018-07-25T03:23:53.884Z,12.80
2018-07-25T03:26:22.347Z,12.80
2018-07-25T03:28:50.882Z,12.80
2018-07-25T03:31:19.464Z,12.80
2018-07-25T03:33:47.824Z,12.80
2018-07-25T03:36:16.319Z,12.80
2018-07-25T03:38:44.783Z,12.80
2018-07-25T03:41:13.260Z,12.70
2018-07-25T03:43:41.659Z,12.70
2018-07-25T03:46:10.120Z,12.70
2018-07-25T03:48:38.648Z,12.70
2018-07-25T03:51:07.110Z,12.70
2018-07-25T03:53:35.533Z,12.70
2018-07-25T03:56:04.100Z,12.70
2018-07-25T03:58:32.556Z,12.60
2018-07-25T04:01:01.035Z,12.60
2018-07-25T04:03:29.524Z,12.60
2018-07-25T04:05:58.011Z,12.60
2018-07-25T04:08:26.517Z,12.70
2018-07-25T04:10:54.973Z,12.60
2018-07-25T04:13:23.476Z,12.60
2018-07-25T04:15:51.905Z,12.60
2018-07-25T04:18:20.441Z,12.70
2018-07-25T04:20:48.962Z,12.80
2018-07-25T04:23:17.404Z,12.80
2018-07-25T04:25:45.871Z,12.80
2018-07-25T04:28:14.361Z,12.80
2018-07-25T04:33:10.972Z,12.80
2018-07-25T04:35:39.602Z,12.90
2018-07-25T04:38:08.038Z,12.90
2018-07-25T04:40:37.400Z,12.90
2018-07-25T04:43:05.873Z,13.00
2018-07-25T04:45:34.460Z,13.00
2018-07-25T04:48:03.046Z,13.00
2018-07-25T04:50:31.651Z,13.10
2018-07-25T04:53:00.113Z,13.10
2018-07-25T04:55:28.629Z,13.20
2018-07-25T04:57:57.069Z,13.30
2018-07-25T05:00:25.581Z,13.40
2018-07-25T05:02:54.236Z,13.50
2018-07-25T05:05:22.712Z,13.50
2018-07-25T05:07:51.117Z,13.60
2018-07-25T05:10:19.600Z,13.60
2018-07-25T05:15:16.315Z,13.90
2018-07-25T05:17:44.815Z,14.00
2018-07-25T05:20:13.250Z,14.10
2018-07-25T05:22:41.757Z,14.10
2018-07-25T05:25:10.236Z,14.30
2018-07-25T05:27:38.740Z,14.40
2018-07-25T05:30:07.311Z,14.50
2018-07-25T05:32:35.769Z,14.60
2018-07-25T05:35:04.561Z,14.80
2018-07-25T05:37:33.096Z,14.80
2018-07-25T05:40:01.538Z,15.00
2018-07-25T05:42:30.135Z,15.10
2018-07-25T05:44:58.612Z,15.20
2018-07-25T05:47:27.068Z,15.40
2018-07-25T05:49:55.644Z,15.50
2018-07-25T06:05:28.563Z,15.60
2018-07-25T06:07:57.152Z,15.80
2018-07-25T06:10:25.644Z,16.80
2018-07-25T06:12:54.822Z,17.00
2018-07-25T06:15:23.480Z,17.10
2018-07-25T06:17:51.939Z,17.40
2018-07-25T06:20:20.474Z,17.60
2018-07-25T06:22:49.061Z,17.80
2018-07-25T06:25:18.170Z,18.10
2018-07-25T06:27:47.125Z,18.40
2018-07-25T06:30:15.607Z,18.60
2018-07-25T06:32:44.055Z,18.80
2018-07-25T06:35:12.580Z,19.10
2018-07-25T06:37:41.742Z,19.30
2018-07-25T06:40:10.246Z,19.60
2018-07-25T06:42:39.360Z,19.80
2018-07-25T06:45:07.969Z,20.00
2018-07-25T06:47:36.710Z,20.40
2018-07-25T06:50:06.537Z,20.70
2018-07-25T06:52:36.086Z,20.90
2018-07-25T06:55:04.573Z,21.20
2018-07-25T06:57:33.213Z,21.60
2018-07-25T07:00:01.764Z,21.80
2018-07-25T07:02:30.284Z,22.10
2018-07-25T07:04:59.288Z,22.30
2018-07-25T07:07:27.852Z,22.50
2018-07-25T07:09:56.585Z,22.70
2018-07-25T07:12:25.105Z,23.10
2018-07-25T07:14:53.608Z,23.40
2018-07-25T07:17:22.247Z,23.40
2018-07-25T07:19:50.925Z,23.80
2018-07-25T07:22:19.455Z,24.10
2018-07-25T07:24:48.065Z,24.60
2018-07-25T07:27:16.528Z,24.90
2018-07-25T07:29:44.976Z,24.70
2018-07-25T07:32:13.432Z,24.70
2018-07-25T07:34:41.909Z,24.80
2018-07-25T07:37:10.523Z,25.00
2018-07-25T07:39:39.025Z,25.20
2018-07-25T07:42:07.708Z,25.50
2018-07-25T07:44:36.265Z,25.70
2018-07-25T07:47:05.087Z,26.20
2018-07-25T07:49:33.530Z,26.60
2018-07-25T07:52:02.123Z,26.80
2018-07-25T07:54:30.588Z,27.20
2018-07-25T07:59:28.605Z,27.50
2018-07-25T08:01:57.171Z,27.70
2018-07-25T08:04:25.684Z,27.80
2018-07-25T08:06:54.196Z,27.80
2018-07-25T08:09:23.409Z,27.90
2018-07-25T08:11:51.956Z,28.10
2018-07-25T08:14:20.416Z,28.30
2018-07-25T08:16:48.897Z,28.50
2018-07-25T08:19:17.796Z,28.50
2018-07-25T08:21:46.258Z,28.60
2018-07-25T08:24:14.740Z,28.90
2018-07-25T08:26:43.212Z,28.70
2018-07-25T08:29:11.752Z,28.90
2018-07-25T08:31:40.307Z,28.90
2018-07-25T08:34:08.845Z,29.10
2018-07-25T08:36:37.446Z,29.30
2018-07-25T08:39:08.684Z,29.50
2018-07-25T08:41:37.248Z,29.80
2018-07-25T08:44:06.795Z,29.80
2018-07-25T08:49:03.403Z,30.00
2018-07-25T08:51:32.608Z,29.90
2018-07-25T08:54:01.062Z,29.90
2018-07-25T08:56:29.545Z,30.20
2018-07-25T08:58:57.976Z,30.30
2018-07-25T09:03:54.665Z,30.40
2018-07-25T09:06:23.193Z,30.50
2018-07-25T09:08:51.686Z,30.80
2018-07-25T09:11:26.200Z,30.50
2018-07-25T09:13:54.910Z,30.90
2018-07-25T09:16:23.340Z,30.70
2018-07-25T09:18:51.930Z,30.70
2018-07-25T09:21:20.372Z,30.90
2018-07-25T09:26:17.354Z,30.90
2018-07-25T09:28:46.453Z,31.10
2018-07-25T09:31:14.962Z,31.60
2018-07-25T09:33:43.494Z,31.80
2018-07-25T09:36:11.982Z,31.80
2018-07-25T09:38:40.544Z,31.80
2018-07-25T09:41:09.194Z,31.90
2018-07-25T09:43:37.622Z,31.90
2018-07-25T09:46:06.188Z,32.20
2018-07-25T09:48:34.736Z,32.30
2018-07-25T09:51:03.460Z,32.30
2018-07-25T09:53:31.925Z,32.50
2018-07-25T09:56:00.480Z,32.80
2018-07-25T09:58:28.985Z,32.60
2018-07-25T10:00:58.443Z,32.40
2018-07-25T10:03:26.998Z,32.30
2018-07-25T10:05:55.546Z,32.40
2018-07-25T10:08:24.121Z,32.60
2018-07-25T10:10:52.620Z,32.80
2018-07-25T10:13:21.248Z,32.80
2018-07-25T10:15:49.828Z,32.80
2018-07-25T10:20:46.786Z,32.90
2018-07-25T10:23:15.177Z,32.90
2018-07-25T10:25:43.728Z,33.00
2018-07-25T10:28:12.300Z,33.20
2018-07-25T10:30:40.844Z,33.30
2018-07-25T10:33:10.209Z,33.50
2018-07-25T10:35:38.817Z,33.80
2018-07-25T10:38:07.400Z,33.70
2018-07-25T10:40:35.976Z,33.40
2018-07-25T10:43:04.504Z,33.40
2018-07-25T10:45:32.997Z,33.30
2018-07-25T10:48:02.067Z,32.80
2018-07-25T10:50:30.648Z,32.30
2018-07-25T10:52:59.236Z,31.60
2018-07-25T10:55:28.239Z,31.30
2018-07-25T10:57:56.724Z,31.40
2018-07-25T11:00:25.405Z,32.30
2018-07-25T11:02:53.906Z,32.90
2018-07-25T11:05:22.444Z,33.20
2018-07-25T11:07:50.916Z,33.30
2018-07-25T11:10:19.586Z,33.60
2018-07-25T11:12:48.129Z,33.50
2018-07-25T11:15:16.636Z,33.60
2018-07-25T11:17:45.136Z,33.30
2018-07-25T11:20:13.677Z,32.40
2018-07-25T11:22:42.094Z,32.60
2018-07-25T11:25:10.532Z,33.00
2018-07-25T11:27:38.960Z,33.60
2018-07-25T11:30:07.645Z,33.50
2018-07-25T11:32:36.224Z,32.90
2018-07-25T11:35:04.744Z,31.90
2018-07-25T11:37:33.875Z,31.20
2018-07-25T11:40:02.420Z,31.00
2018-07-25T11:42:30.906Z,30.80
2018-07-25T11:44:59.375Z,30.70
2018-07-25T11:52:24.454Z,30.80
2018-07-25T11:54:52.899Z,30.60
2018-07-25T12:02:17.970Z,31.10
2018-07-25T12:04:46.621Z,30.90
2018-07-25T12:09:43.461Z,31.50
2018-07-25T12:12:11.900Z,31.40
2018-07-25T12:14:40.340Z,32.00
2018-07-25T12:17:08.807Z,32.70
2018-07-25T12:22:05.784Z,32.00
2018-07-25T12:24:35.048Z,31.70
2018-07-25T12:27:04.194Z,31.70
2018-07-25T12:29:32.700Z,32.20
2018-07-25T12:32:01.210Z,32.30
2018-07-25T12:34:29.608Z,31.60
2018-07-25T12:36:58.324Z,31.00
2018-07-25T12:39:26.825Z,31.00
2018-07-25T12:41:55.240Z,31.80
2018-07-25T12:44:23.669Z,32.10
2018-07-25T12:46:52.117Z,32.50
2018-07-25T12:49:20.585Z,32.80
2018-07-25T12:51:49.108Z,32.50
2018-07-25T12:54:17.733Z,31.80
2018-07-25T12:56:46.372Z,31.60
2018-07-25T12:59:14.902Z,31.40
2018-07-25T13:01:43.384Z,31.10
2018-07-25T13:04:11.931Z,31.40
2018-07-25T13:09:10.844Z,31.30
2018-07-25T13:11:39.369Z,31.90
2018-07-25T13:14:08.318Z,32.60
2018-07-25T13:16:37.257Z,32.80
2018-07-25T13:19:06.913Z,33.20
2018-07-25T13:21:35.888Z,33.30
2018-07-25T13:24:04.361Z,33.30
2018-07-25T13:26:33.026Z,33.50
2018-07-25T13:29:01.666Z,33.90
2018-07-25T13:31:30.815Z,34.10
2018-07-25T13:33:59.391Z,34.30
2018-07-25T13:36:27.877Z,33.90
2018-07-25T13:38:56.352Z,34.00
2018-07-25T13:41:25.893Z,34.20
2018-07-25T13:43:54.391Z,34.00
2018-07-25T13:48:51.953Z,32.50
2018-07-25T13:51:20.475Z,32.40
2018-07-25T13:53:48.978Z,33.20
2018-07-25T13:56:17.525Z,33.30
2018-07-25T13:58:46.061Z,33.70
2018-07-25T14:01:14.775Z,33.70
2018-07-25T14:03:43.311Z,33.40
2018-07-25T14:06:11.836Z,32.40
2018-07-25T14:08:40.533Z,32.40
2018-07-25T14:13:39.316Z,33.50
2018-07-25T14:16:08.337Z,33.70
2018-07-25T14:18:37.000Z,33.50
2018-07-25T14:21:05.556Z,33.60
2018-07-25T14:23:34.204Z,33.80
2018-07-25T14:26:02.642Z,33.70
2018-07-25T14:28:31.145Z,33.40
2018-07-25T14:30:59.621Z,33.50
2018-07-25T14:33:28.374Z,33.50
2018-07-25T14:35:56.875Z,33.50
2018-07-25T14:38:25.465Z,33.10
2018-07-25T14:40:53.916Z,33.40
2018-07-25T14:43:22.463Z,33.50
2018-07-25T14:45:50.948Z,33.70
2018-07-25T14:48:19.649Z,33.60
2018-07-25T14:50:48.113Z,33.60
2018-07-25T14:53:16.626Z,33.80
2018-07-25T14:55:45.092Z,33.60
2018-07-25T14:58:13.601Z,33.50
2018-07-25T15:00:42.125Z,33.40
2018-07-25T15:03:10.646Z,33.20
2018-07-25T15:05:39.184Z,33.10
2018-07-25T15:08:07.677Z,33.10
2018-07-25T15:10:36.246Z,32.90
2018-07-25T15:13:04.984Z,32.80
2018-07-25T15:15:33.600Z,32.70
2018-07-25T15:18:02.288Z,32.40
2018-07-25T15:20:31.329Z,32.20
2018-07-25T15:22:59.880Z,32.00
2018-07-25T15:25:28.432Z,31.80
2018-07-25T15:27:57.120Z,31.90
2018-07-25T15:30:25.581Z,31.80
2018-07-25T15:32:54.164Z,31.80
2018-07-25T15:35:22.804Z,32.00
2018-07-25T15:37:51.315Z,32.00
2018-07-25T15:40:19.844Z,31.90
2018-07-25T15:42:48.358Z,31.80
2018-07-25T15:45:16.901Z,31.80
2018-07-25T15:47:45.385Z,31.70
2018-07-25T15:50:13.982Z,31.60
2018-07-25T15:52:42.691Z,31.60
2018-07-25T15:55:11.396Z,31.40
2018-07-25T16:00:08.753Z,31.20
2018-07-25T16:02:37.685Z,31.00
2018-07-25T16:05:06.165Z,30.70
2018-07-25T16:07:34.691Z,30.40
2018-07-25T16:10:03.266Z,30.00
2018-07-25T16:12:31.716Z,29.60
2018-07-25T16:15:00.284Z,29.10
2018-07-25T16:19:57.803Z,28.70
2018-07-25T16:22:26.280Z,28.30
2018-07-25T16:24:55.025Z,28.10
2018-07-25T16:27:24.329Z,28.10
2018-07-25T16:29:52.808Z,28.00
2018-07-25T16:32:21.380Z,28.10
2018-07-25T16:34:49.893Z,28.10
2018-07-25T16:37:18.361Z,28.00
2018-07-25T16:39:46.820Z,28.20
2018-07-25T16:42:15.264Z,28.20
2018-07-25T16:44:43.737Z,28.20
2018-07-25T16:47:12.185Z,28.20
2018-07-25T16:49:40.794Z,28.10
2018-07-25T16:52:09.253Z,27.90
2018-07-25T16:54:38.101Z,27.70
2018-07-25T16:57:06.640Z,27.70
2018-07-25T16:59:35.225Z,27.60
2018-07-25T17:02:03.803Z,27.60
2018-07-25T17:04:32.305Z,27.70
2018-07-25T17:07:00.882Z,27.70
2018-07-25T17:09:29.320Z,27.70
2018-07-25T17:11:57.794Z,27.60
2018-07-25T17:14:26.269Z,27.80
2018-07-25T17:16:54.749Z,27.70
2018-07-25T17:19:23.162Z,27.80
2018-07-25T17:21:51.639Z,27.80
2018-07-25T17:24:20.070Z,27.80
2018-07-25T17:26:48.524Z,27.80
2018-07-25T17:29:17.089Z,27.80
2018-07-25T17:31:45.643Z,27.80
2018-07-25T17:34:14.110Z,27.70
2018-07-25T17:36:42.621Z,27.70
2018-07-25T17:39:11.917Z,27.50
2018-07-25T17:41:41.588Z,27.50
2018-07-25T17:44:10.097Z,27.50
2018-07-25T17:46:39.177Z,27.30
2018-07-25T17:49:07.633Z,27.10
2018-07-25T17:51:36.097Z,27.00
2018-07-25T17:56:33.340Z,26.70
2018-07-25T17:59:02.451Z,26.60
2018-07-25T18:01:31.617Z,26.50
2018-07-25T18:04:00.117Z,26.40
2018-07-25T18:06:28.588Z,26.40
2018-07-25T18:08:57.092Z,26.30
2018-07-25T18:13:59.115Z,26.10
2018-07-25T18:16:27.660Z,25.90
2018-07-25T18:18:56.493Z,25.80
2018-07-25T18:21:25.044Z,25.70
2018-07-25T18:23:53.600Z,25.50
2018-07-25T18:26:22.080Z,25.40
2018-07-25T18:28:50.544Z,25.30
2018-07-25T18:31:19.165Z,25.10
2018-07-25T18:33:47.669Z,24.90
2018-07-25T18:36:16.165Z,24.70
2018-07-25T18:38:44.662Z,24.60
2018-07-25T18:41:13.189Z,24.40
2018-07-25T18:43:42.493Z,24.30
2018-07-25T18:46:11.328Z,24.20
2018-07-25T18:48:41.037Z,24.10
2018-07-25T18:51:09.602Z,23.90
2018-07-25T18:53:38.348Z,23.80
2018-07-25T18:56:07.295Z,23.60
2018-07-25T18:58:35.779Z,23.40
2018-07-25T19:01:04.316Z,23.20
2018-07-25T19:03:33.370Z,23.10
2018-07-25T19:06:01.862Z,22.90
2018-07-25T19:08:30.282Z,22.80
2018-07-25T19:10:58.714Z,22.60
2018-07-25T19:13:33.368Z,22.60
2018-07-25T19:16:02.707Z,22.60
2018-07-25T19:18:31.185Z,22.50
2018-07-25T19:21:00.005Z,22.30
2018-07-25T19:23:30.082Z,22.30
2018-07-25T19:25:58.679Z,22.20
2018-07-25T19:30:55.274Z,21.90
2018-07-25T19:33:24.163Z,21.70
2018-07-25T19:35:53.137Z,21.60
2018-07-25T19:38:22.758Z,21.50
2018-07-25T19:40:51.258Z,21.40
2018-07-25T19:43:20.225Z,21.20
2018-07-25T19:45:48.781Z,21.10
2018-07-25T19:48:17.368Z,21.20
2018-07-25T19:53:14.676Z,21.00
2018-07-25T19:55:43.342Z,20.90
2018-07-25T20:00:40.107Z,20.80
2018-07-25T20:03:09.139Z,20.70
2018-07-25T20:05:37.788Z,20.60
2018-07-25T20:08:07.845Z,20.60
2018-07-25T20:10:36.328Z,20.60
2018-07-25T20:13:04.843Z,20.50
2018-07-25T20:15:38.777Z,20.50
2018-07-25T20:18:07.379Z,20.40
2018-07-25T20:20:35.782Z,20.30
2018-07-25T20:23:04.650Z,20.20
2018-07-25T20:25:33.539Z,20.20
2018-07-25T20:28:02.457Z,20.20
2018-07-25T20:30:32.365Z,20.00
2018-07-25T20:33:00.894Z,20.10
2018-07-25T20:35:29.500Z,20.00
2018-07-25T20:37:58.303Z,20.00
2018-07-25T20:40:27.385Z,20.00
2018-07-25T20:42:55.894Z,20.00
2018-07-25T20:45:24.347Z,19.80
2018-07-25T20:50:21.432Z,19.80
2018-07-25T20:52:50.313Z,19.80
2018-07-25T20:55:19.315Z,19.70
2018-07-25T20:57:48.319Z,19.60
2018-07-25T21:00:19.003Z,19.40
2018-07-25T21:02:47.833Z,19.60
2018-07-25T21:05:16.400Z,19.50
2018-07-25T21:07:45.035Z,19.50
2018-07-25T21:10:13.632Z,19.50
2018-07-25T21:12:42.084Z,19.40
2018-07-25T21:15:10.543Z,19.30
2018-07-25T21:17:38.992Z,19.20
2018-07-25T21:20:07.456Z,19.10
2018-07-25T21:22:36.011Z,19.10
2018-07-25T21:25:05.085Z,19.10
2018-07-25T21:27:34.109Z,18.90
2018-07-25T21:30:02.603Z,18.80
2018-07-25T21:32:31.156Z,18.80
2018-07-25T21:34:59.636Z,18.90
2018-07-25T21:37:28.084Z,18.80
2018-07-25T21:39:56.633Z,18.70
2018-07-25T21:42:25.108Z,18.80
2018-07-25T21:44:54.128Z,18.70
2018-07-25T21:47:22.627Z,18.60
2018-07-25T21:49:51.064Z,18.70
2018-07-25T21:52:19.570Z,18.70
2018-07-25T21:54:48.038Z,18.70
2018-07-25T21:57:16.496Z,18.70
2018-07-25T21:59:45.000Z,18.50
2018-07-25T22:02:14.128Z,18.50
2018-07-25T22:04:42.855Z,18.50
2018-07-25T22:07:11.316Z,18.50
2018-07-25T22:09:39.759Z,18.40
2018-07-25T22:12:08.270Z,18.40
2018-07-25T22:14:36.798Z,18.20
2018-07-25T22:17:05.789Z,18.20
2018-07-25T22:19:34.312Z,18.10
2018-07-25T22:22:03.484Z,18.00
2018-07-25T22:24:31.927Z,17.90
2018-07-25T22:27:00.377Z,17.80
2018-07-25T22:29:28.834Z,17.80
2018-07-25T22:31:57.353Z,17.70
2018-07-25T22:34:25.777Z,17.70
2018-07-25T22:36:54.286Z,17.60
2018-07-25T22:39:22.870Z,17.50
2018-07-25T22:41:51.363Z,17.50
2018-07-25T22:44:19.844Z,17.50
2018-07-25T22:46:48.291Z,17.50
2018-07-25T22:49:16.825Z,17.50
2018-07-25T22:51:45.245Z,17.40
2018-07-25T22:54:13.733Z,17.30
2018-07-25T22:56:42.264Z,17.30
2018-07-25T22:59:10.729Z,17.20
2018-07-25T23:01:39.212Z,17.00
2018-07-25T23:04:07.761Z,17.00
2018-07-25T23:06:36.232Z,17.00
2018-07-25T23:09:07.952Z,17.00
2018-07-25T23:11:36.545Z,17.00
2018-07-25T23:14:05.019Z,17.00
2018-07-25T23:16:33.484Z,17.00
2018-07-25T23:19:01.970Z,16.80
2018-07-25T23:21:30.425Z,16.70
2018-07-25T23:23:58.888Z,16.70
2018-07-25T23:26:27.696Z,16.70
2018-07-25T23:28:56.136Z,16.60
2018-07-25T23:31:24.596Z,16.60
2018-07-25T23:33:53.042Z,16.60
2018-07-25T23:36:21.553Z,16.60
2018-07-25T23:38:50.065Z,16.60
2018-07-25T23:41:18.516Z,16.50
2018-07-25T23:43:46.948Z,16.50
2018-07-25T23:46:15.444Z,16.40
2018-07-25T23:48:43.881Z,16.40
2018-07-25T23:51:12.356Z,16.20
2018-07-25T23:53:40.820Z,16.30
2018-07-25T23:56:09.356Z,16.30
2018-07-25T23:58:38.045Z,16.20
